Time;durP1;ratioP1;P1;durP2;ratioP2;P2;SDS_P1;SDS_P2;PMS_P1;PMS_P2;Temp;Humidity;BMP_temperature;BMP_pressure;BME280_temperature;BME280_humidity;BME280_pressure;Samples;Min_cycle;Max_cycle;Signal;HPM_P1;HPM_P2
2021/12/01 00:01:03;;;;;;;4.60;1.40;;;;;;;;;;4956319;29;20023;-70
2021/12/01 00:03:29;;;;;;;2.60;1.50;;;;;;;;;;4957584;28;20123;-70
2021/12/01 00:05:55;;;;;;;2.58;1.60;;;;;;;;;;4957316;28;20054;-73
2021/12/01 00:08:22;;;;;;;3.35;1.50;;;;;;;;;;4957903;28;20031;-68
2021/12/01 00:10:48;;;;;;;3.78;2.00;;;;;;;;;;4957270;28;20363;-69
2021/12/01 00:13:17;;;;;;;2.95;1.45;;;;;;;;;;4957191;28;20498;-69
2021/12/01 00:15:45;;;;;;;5.65;2.05;;;;;;;;;;4957208;28;20162;-70
2021/12/01 00:18:13;;;;;;;3.50;1.60;;;;;;;;;;4957269;28;20184;-70
2021/12/01 00:20:39;;;;;;;7.22;1.67;;;;;;;;;;4956739;28;20390;-69
2021/12/01 00:23:06;;;;;;;4.03;1.70;;;;;;;;;;4956967;29;20043;-70
2021/12/01 00:25:35;;;;;;;4.43;1.88;;;;;;;;;;4956985;28;20026;-70
2021/12/01 00:28:01;;;;;;;2.55;1.50;;;;;;;;;;4956998;28;20055;-70
2021/12/01 00:30:27;;;;;;;3.28;1.60;;;;;;;;;;4956805;28;20035;-69
2021/12/01 00:32:54;;;;;;;2.20;1.30;;;;;;;;;;4956884;28;20137;-70
2021/12/01 00:35:21;;;;;;;3.10;1.25;;;;;;;;;;4952316;28;20039;-71
2021/12/01 00:37:47;;;;;;;4.18;1.33;;;;;;;;;;4956900;28;20364;-71
2021/12/01 00:40:13;;;;;;;2.72;1.20;;;;;;;;;;4950824;28;20038;-72
2021/12/01 00:42:40;;;;;;;2.38;1.30;;;;;;;;;;4954890;28;20035;-70
2021/12/01 00:45:11;;;;;;;5.43;1.30;;;;;;;;;;4956834;28;20031;-72
2021/12/01 00:47:49;;;;;;;3.35;1.25;;;;;;;;;;4956755;28;20090;-70
2021/12/01 00:50:28;;;;;;;6.00;1.50;;;;;;;;;;4956577;28;20035;-70
2021/12/01 00:52:57;;;;;;;2.47;1.35;;;;;;;;;;4956441;28;20057;-71
2021/12/01 00:55:23;;;;;;;2.90;1.50;;;;;;;;;;4956388;28;20031;-70
2021/12/01 00:57:51;;;;;;;3.28;1.75;;;;;;;;;;4956365;28;20035;-70
2021/12/01 01:00:17;;;;;;;3.47;1.38;;;;;;;;;;4956549;29;20110;-70
2021/12/01 01:02:43;;;;;;;2.75;1.58;;;;;;;;;;4956689;29;20565;-71
2021/12/01 01:05:09;;;;;;;2.75;1.48;;;;;;;;;;4956663;28;20027;-71
2021/12/01 01:07:36;;;;;;;3.38;1.50;;;;;;;;;;4956439;28;20098;-68
2021/12/01 01:10:28;;;;;;;2.00;1.40;;;;;;;;;;4956248;28;20174;-71
2021/12/01 01:18:29;;;;;;;3.88;1.50;;;;;;;;;;4981069;28;20405;-69
2021/12/01 01:20:55;;;;;;;2.05;1.40;;;;;;;;;;4975527;28;20359;-69
2021/12/01 01:23:21;;;;;;;3.10;1.70;;;;;;;;;;4975439;28;20073;-70
2021/12/01 01:25:46;;;;;;;2.80;1.77;;;;;;;;;;4975647;28;20019;-70
2021/12/01 01:28:13;;;;;;;2.75;1.70;;;;;;;;;;4975486;28;20051;-70
2021/12/01 01:30:39;;;;;;;3.53;1.58;;;;;;;;;;4975222;28;20544;-70
2021/12/01 01:33:05;;;;;;;2.80;1.38;;;;;;;;;;4975215;28;20586;-68
2021/12/01 01:35:30;;;;;;;3.80;1.52;;;;;;;;;;4975333;28;20386;-69
2021/12/01 01:37:56;;;;;;;2.67;1.50;;;;;;;;;;4975040;28;20046;-67
2021/12/01 01:40:22;;;;;;;2.20;1.45;;;;;;;;;;4976815;28;20031;-68
2021/12/01 01:42:48;;;;;;;3.72;1.80;;;;;;;;;;4984624;28;20042;-69
2021/12/01 01:45:15;;;;;;;3.15;1.55;;;;;;;;;;4975242;28;20027;-69
2021/12/01 01:48:13;;;;;;;3.42;1.80;;;;;;;;;;4975113;28;20043;-68
2021/12/01 01:50:42;;;;;;;4.85;1.80;;;;;;;;;;4974908;28;20085;-68
2021/12/01 01:53:22;;;;;;;4.05;1.90;;;;;;;;;;4974959;28;20114;-69
2021/12/01 01:55:50;;;;;;;3.67;1.80;;;;;;;;;;4975073;28;20431;-69
2021/12/01 01:58:17;;;;;;;4.20;1.85;;;;;;;;;;4975078;28;20038;-69
2021/12/01 02:00:51;;;;;;;3.03;1.70;;;;;;;;;;4974349;28;20521;-67
2021/12/01 02:03:22;;;;;;;2.60;1.42;;;;;;;;;;4974798;28;20038;-68
2021/12/01 02:05:49;;;;;;;4.53;1.60;;;;;;;;;;4974800;28;20043;-67
2021/12/01 02:08:17;;;;;;;4.68;1.27;;;;;;;;;;4974619;28;20031;-68
2021/12/01 02:10:46;;;;;;;1.52;0.90;;;;;;;;;;4974391;28;20516;-70
2021/12/01 02:13:12;;;;;;;3.15;1.00;;;;;;;;;;4974257;28;20452;-68
2021/12/01 02:15:38;;;;;;;1.42;1.00;;;;;;;;;;4974407;28;20046;-69
2021/12/01 02:18:04;;;;;;;1.90;1.00;;;;;;;;;;4970547;28;20406;-67
2021/12/01 02:20:30;;;;;;;1.02;0.93;;;;;;;;;;4994050;28;20064;-67
2021/12/01 02:22:59;;;;;;;2.00;1.08;;;;;;;;;;4971354;28;20109;-67
2021/12/01 02:25:25;;;;;;;2.47;1.20;;;;;;;;;;4964617;28;20038;-67
2021/12/01 02:27:50;;;;;;;1.85;1.08;;;;;;;;;;4976107;28;20062;-69
2021/12/01 02:30:17;;;;;;;2.28;1.33;;;;;;;;;;4974341;28;20426;-69
2021/12/01 02:32:42;;;;;;;2.13;1.40;;;;;;;;;;4974399;28;20409;-68
2021/12/01 02:35:09;;;;;;;1.85;1.13;;;;;;;;;;4971500;28;20130;-68
2021/12/01 02:37:37;;;;;;;3.35;1.17;;;;;;;;;;4974900;28;20110;-69
2021/12/01 02:40:04;;;;;;;1.83;1.10;;;;;;;;;;4974796;28;20143;-67
2021/12/01 02:42:30;;;;;;;1.70;1.00;;;;;;;;;;4974363;28;20038;-68
2021/12/01 02:44:56;;;;;;;1.75;1.02;;;;;;;;;;4974852;28;20042;-68
2021/12/01 02:47:25;;;;;;;2.47;1.17;;;;;;;;;;4974770;28;20023;-68
2021/12/01 02:49:54;;;;;;;1.65;1.17;;;;;;;;;;4974891;28;20035;-68
2021/12/01 02:52:22;;;;;;;2.78;1.30;;;;;;;;;;4973023;28;20035;-69
2021/12/01 02:54:49;;;;;;;1.83;1.30;;;;;;;;;;4974470;28;20033;-68
2021/12/01 02:57:15;;;;;;;3.78;1.40;;;;;;;;;;4974522;28;20101;-68
2021/12/01 02:59:41;;;;;;;2.10;1.20;;;;;;;;;;4974285;28;20034;-68
2021/12/01 03:02:08;;;;;;;2.80;1.42;;;;;;;;;;4974541;28;20026;-68
2021/12/01 03:04:35;;;;;;;2.97;1.25;;;;;;;;;;4974675;28;20057;-67
2021/12/01 03:07:03;;;;;;;3.53;1.20;;;;;;;;;;4968451;28;20042;-67
2021/12/01 03:09:29;;;;;;;2.72;1.40;;;;;;;;;;4972429;28;20426;-69
2021/12/01 03:11:55;;;;;;;3.50;1.50;;;;;;;;;;4973174;28;20110;-68
2021/12/01 03:14:21;;;;;;;2.50;1.35;;;;;;;;;;4973681;28;20038;-67
2021/12/01 03:16:49;;;;;;;2.05;1.50;;;;;;;;;;4972715;28;20019;-68
2021/12/01 03:19:15;;;;;;;2.63;1.70;;;;;;;;;;4973357;28;20066;-67
2021/12/01 03:21:42;;;;;;;8.60;1.80;;;;;;;;;;4973169;28;20069;-68
2021/12/01 03:24:09;;;;;;;4.15;2.03;;;;;;;;;;4972820;28;20030;-68
2021/12/01 03:26:36;;;;;;;4.25;2.17;;;;;;;;;;4972781;28;20548;-68
2021/12/01 03:29:03;;;;;;;6.63;2.13;;;;;;;;;;4972942;28;20031;-68
2021/12/01 03:31:29;;;;;;;7.95;2.00;;;;;;;;;;4972979;28;20038;-68
2021/12/01 03:33:55;;;;;;;3.92;1.90;;;;;;;;;;4974680;28;20030;-67
2021/12/01 03:36:21;;;;;;;3.90;1.98;;;;;;;;;;4979719;28;20041;-67
2021/12/01 03:38:47;;;;;;;4.22;2.10;;;;;;;;;;4979427;28;20034;-68
2021/12/01 03:41:13;;;;;;;4.07;2.03;;;;;;;;;;4979645;28;20027;-69
2021/12/01 03:43:39;;;;;;;5.88;1.88;;;;;;;;;;4979486;28;20046;-68
2021/12/01 03:46:05;;;;;;;3.38;1.77;;;;;;;;;;4979636;28;20413;-69
2021/12/01 03:48:31;;;;;;;6.38;2.20;;;;;;;;;;4979608;28;20497;-70
2021/12/01 03:50:57;;;;;;;3.08;1.80;;;;;;;;;;4978014;28;20029;-67
2021/12/01 03:53:24;;;;;;;3.92;2.15;;;;;;;;;;4963835;28;20070;-67
2021/12/01 03:55:51;;;;;;;3.80;1.52;;;;;;;;;;4960215;28;20031;-69
2021/12/01 03:58:17;;;;;;;5.18;2.03;;;;;;;;;;4958946;28;20027;-67
2021/12/01 04:00:43;;;;;;;2.22;1.50;;;;;;;;;;4960078;28;20038;-68
2021/12/01 04:03:09;;;;;;;4.07;1.70;;;;;;;;;;4976828;28;20197;-67
2021/12/01 04:05:35;;;;;;;4.43;1.80;;;;;;;;;;4979290;28;20046;-68
2021/12/01 04:08:04;;;;;;;3.47;2.00;;;;;;;;;;4966816;28;20039;-67
2021/12/01 04:10:30;;;;;;;6.53;2.10;;;;;;;;;;4959878;28;20023;-67
2021/12/01 04:12:56;;;;;;;3.30;1.60;;;;;;;;;;4959926;28;20053;-68
2021/12/01 04:15:22;;;;;;;3.28;1.70;;;;;;;;;;4959732;28;20530;-68
2021/12/01 04:17:48;;;;;;;2.85;1.42;;;;;;;;;;4962860;28;20081;-68
2021/12/01 04:20:16;;;;;;;4.68;1.98;;;;;;;;;;4940498;29;20146;-68
2021/12/01 04:22:43;;;;;;;3.78;1.60;;;;;;;;;;4940654;29;20038;-68
2021/12/01 04:25:10;;;;;;;5.43;2.10;;;;;;;;;;4940811;29;20335;-66
2021/12/01 04:27:37;;;;;;;6.03;2.03;;;;;;;;;;4940207;29;20036;-68
2021/12/01 04:30:04;;;;;;;4.72;2.53;;;;;;;;;;4972493;28;20059;-68
2021/12/01 04:32:30;;;;;;;5.53;1.77;;;;;;;;;;4958696;28;20118;-68
2021/12/01 04:34:57;;;;;;;2.95;1.83;;;;;;;;;;4960811;28;20106;-68
2021/12/01 04:37:24;;;;;;;3.90;2.47;;;;;;;;;;4960590;28;20035;-68
2021/12/01 04:39:51;;;;;;;2.90;1.90;;;;;;;;;;4960512;28;20132;-67
2021/12/01 04:42:17;;;;;;;4.47;2.13;;;;;;;;;;4961015;28;20039;-67
2021/12/01 04:44:43;;;;;;;5.72;1.80;;;;;;;;;;4960301;28;20031;-68
2021/12/01 04:47:13;;;;;;;2.65;1.80;;;;;;;;;;4955783;28;20035;-68
2021/12/01 04:49:39;;;;;;;3.20;1.95;;;;;;;;;;4956527;28;20479;-69
2021/12/01 04:52:08;;;;;;;5.85;2.25;;;;;;;;;;4957463;28;20371;-66
2021/12/01 04:54:34;;;;;;;5.25;2.15;;;;;;;;;;4956249;29;20042;-68
2021/12/01 04:57:02;;;;;;;4.72;1.92;;;;;;;;;;4957369;28;20098;-67
2021/12/01 04:59:28;;;;;;;6.35;2.20;;;;;;;;;;4957375;28;20035;-68
2021/12/01 05:01:55;;;;;;;8.70;2.92;;;;;;;;;;4956692;28;20034;-68
2021/12/01 05:04:23;;;;;;;4.65;2.40;;;;;;;;;;4956714;28;20054;-68
2021/12/01 05:06:49;;;;;;;4.80;2.50;;;;;;;;;;4957032;28;20055;-67
2021/12/01 05:09:16;;;;;;;7.97;2.92;;;;;;;;;;4956957;28;20118;-68
2021/12/01 05:11:42;;;;;;;8.07;2.78;;;;;;;;;;4956735;28;20504;-68
2021/12/01 05:14:08;;;;;;;7.38;2.85;;;;;;;;;;4957007;28;20479;-66
2021/12/01 05:16:36;;;;;;;11.63;4.43;;;;;;;;;;4956916;28;20323;-67
2021/12/01 05:19:05;;;;;;;8.05;4.10;;;;;;;;;;4956667;28;20035;-66
2021/12/01 05:21:32;;;;;;;5.47;3.30;;;;;;;;;;4956674;28;20034;-68
2021/12/01 05:23:58;;;;;;;9.43;3.60;;;;;;;;;;4956769;28;20035;-67
2021/12/01 05:26:24;;;;;;;11.43;4.07;;;;;;;;;;4956606;28;20435;-66
2021/12/01 05:28:50;;;;;;;5.63;3.33;;;;;;;;;;4987665;28;20122;-66
2021/12/01 05:31:15;;;;;;;9.40;3.40;;;;;;;;;;4956380;28;20043;-68
2021/12/01 05:33:41;;;;;;;10.95;3.28;;;;;;;;;;4955823;28;20043;-67
2021/12/01 05:36:08;;;;;;;6.05;3.20;;;;;;;;;;4956335;28;20035;-67
2021/12/01 05:38:34;;;;;;;16.05;5.95;;;;;;;;;;4956200;28;20082;-66
2021/12/01 05:41:02;;;;;;;10.57;4.95;;;;;;;;;;4974279;28;20390;-68
2021/12/01 05:43:28;;;;;;;8.95;4.53;;;;;;;;;;4974925;28;20045;-68
2021/12/01 05:45:54;;;;;;;6.30;2.78;;;;;;;;;;4975500;28;20027;-69
2021/12/01 05:48:20;;;;;;;6.00;3.55;;;;;;;;;;4975585;28;20093;-68
2021/12/01 05:50:45;;;;;;;5.75;3.58;;;;;;;;;;4975233;28;20127;-67
2021/12/01 05:53:13;;;;;;;6.90;3.50;;;;;;;;;;4975106;28;20402;-68
2021/12/01 05:55:40;;;;;;;9.95;3.38;;;;;;;;;;4975209;28;20022;-68
2021/12/01 05:58:06;;;;;;;10.50;4.35;;;;;;;;;;4973987;28;20514;-67
2021/12/01 06:00:35;;;;;;;5.70;3.15;;;;;;;;;;4974656;28;20058;-67
2021/12/01 06:03:01;;;;;;;5.22;3.40;;;;;;;;;;4975033;28;20042;-67
2021/12/01 06:05:27;;;;;;;12.23;4.40;;;;;;;;;;4974720;28;20042;-68
2021/12/01 06:07:53;;;;;;;13.18;3.97;;;;;;;;;;4974662;28;20035;-69
2021/12/01 06:10:19;;;;;;;8.00;3.22;;;;;;;;;;4954593;28;20490;-67
2021/12/01 06:12:45;;;;;;;12.65;5.25;;;;;;;;;;4951506;28;20061;-69
2021/12/01 06:15:15;;;;;;;14.60;4.35;;;;;;;;;;4972318;28;20019;-73
2021/12/01 06:17:41;;;;;;;4.50;2.65;;;;;;;;;;4989473;28;20086;-72
2021/12/01 06:20:08;;;;;;;8.90;3.17;;;;;;;;;;4974847;28;20034;-73
2021/12/01 06:22:34;;;;;;;10.98;4.18;;;;;;;;;;4974594;28;20122;-73
2021/12/01 06:25:01;;;;;;;8.43;3.80;;;;;;;;;;4974612;28;20102;-72
2021/12/01 06:27:27;;;;;;;12.25;4.95;;;;;;;;;;4974110;28;20126;-72
2021/12/01 06:29:53;;;;;;;11.63;4.68;;;;;;;;;;4974132;28;20039;-74
2021/12/01 06:32:20;;;;;;;14.55;4.28;;;;;;;;;;4974214;28;20049;-72
2021/12/01 06:34:46;;;;;;;12.88;4.03;;;;;;;;;;4972787;28;20127;-72
2021/12/01 06:37:12;;;;;;;12.00;3.58;;;;;;;;;;4946308;28;20122;-72
2021/12/01 06:39:37;;;;;;;16.13;6.15;;;;;;;;;;4935906;29;20178;-72
2021/12/01 06:42:04;;;;;;;13.02;5.05;;;;;;;;;;4935381;29;20043;-72
2021/12/01 06:44:30;;;;;;;8.75;3.85;;;;;;;;;;4951945;28;20027;-72
2021/12/01 06:46:58;;;;;;;13.63;3.40;;;;;;;;;;4954900;28;20178;-72
2021/12/01 06:49:23;;;;;;;6.43;2.70;;;;;;;;;;4954759;28;20031;-71
2021/12/01 06:51:49;;;;;;;8.18;2.67;;;;;;;;;;4954156;28;20035;-71
2021/12/01 06:54:15;;;;;;;6.50;2.83;;;;;;;;;;4953525;28;20034;-70
2021/12/01 06:56:42;;;;;;;6.30;2.42;;;;;;;;;;4961755;28;20038;-71
2021/12/01 06:59:08;;;;;;;6.97;3.33;;;;;;;;;;4973741;28;20415;-70
2021/12/01 07:01:34;;;;;;;5.55;2.55;;;;;;;;;;4973564;28;20042;-71
2021/12/01 07:04:00;;;;;;;7.43;2.88;;;;;;;;;;4966976;28;20031;-71
2021/12/01 07:06:25;;;;;;;9.20;3.13;;;;;;;;;;4949191;29;20035;-70
2021/12/01 07:08:51;;;;;;;12.63;5.10;;;;;;;;;;4934254;29;20504;-70
2021/12/01 07:11:17;;;;;;;11.18;4.07;;;;;;;;;;4934699;29;20046;-71
2021/12/01 07:13:43;;;;;;;10.02;4.32;;;;;;;;;;4955036;28;20031;-70
2021/12/01 07:16:08;;;;;;;11.50;4.05;;;;;;;;;;4971741;28;20511;-71
2021/12/01 07:18:34;;;;;;;6.05;3.58;;;;;;;;;;4953905;28;20409;-72
2021/12/01 07:21:00;;;;;;;7.13;3.28;;;;;;;;;;4954051;28;20379;-71
2021/12/01 07:23:26;;;;;;;6.22;2.95;;;;;;;;;;4954405;28;20034;-73
2021/12/01 07:25:52;;;;;;;6.47;2.28;;;;;;;;;;4954158;28;20052;-72
2021/12/01 07:28:17;;;;;;;4.50;2.50;;;;;;;;;;4954104;28;20051;-72
2021/12/01 07:30:43;;;;;;;7.75;2.67;;;;;;;;;;4954096;28;20035;-71
2021/12/01 07:33:09;;;;;;;7.10;5.00;;;;;;;;;;4963901;28;20035;-76
2021/12/01 07:35:35;;;;;;;4.90;2.70;;;;;;;;;;4973117;28;20517;-70
2021/12/01 07:38:01;;;;;;;4.97;2.97;;;;;;;;;;4971269;28;20042;-70
2021/12/01 07:40:26;;;;;;;6.07;2.55;;;;;;;;;;4972661;28;20031;-72
2021/12/01 07:42:52;;;;;;;4.82;2.30;;;;;;;;;;4973456;28;20470;-70
2021/12/01 07:45:18;;;;;;;8.60;3.08;;;;;;;;;;4973247;28;20070;-74
2021/12/01 07:47:44;;;;;;;4.25;2.40;;;;;;;;;;4973101;28;20034;-73
2021/12/01 07:50:10;;;;;;;6.97;2.92;;;;;;;;;;4973298;28;20034;-73
2021/12/01 07:52:38;;;;;;;8.90;3.60;;;;;;;;;;4973169;28;20408;-75
2021/12/01 07:55:06;;;;;;;4.45;2.63;;;;;;;;;;4973188;28;20035;-74
2021/12/01 07:57:32;;;;;;;4.63;2.47;;;;;;;;;;4973030;28;20101;-77
2021/12/01 07:59:58;;;;;;;8.45;4.32;;;;;;;;;;4973062;28;20046;-76
2021/12/01 08:02:25;;;;;;;10.20;3.50;;;;;;;;;;4972497;28;20039;-75
2021/12/01 08:04:53;;;;;;;6.07;2.40;;;;;;;;;;4971308;28;20054;-71
2021/12/01 08:07:19;;;;;;;6.22;3.40;;;;;;;;;;4972906;28;20097;-75
2021/12/01 08:09:45;;;;;;;4.25;1.63;;;;;;;;;;4973126;28;20054;-74
2021/12/01 08:12:11;;;;;;;8.00;3.38;;;;;;;;;;4963120;28;20023;-75
2021/12/01 08:14:38;;;;;;;9.82;2.88;;;;;;;;;;4953737;29;20050;-76
2021/12/01 08:17:05;;;;;;;5.32;2.95;;;;;;;;;;4953553;28;20078;-76
2021/12/01 08:19:31;;;;;;;5.93;2.50;;;;;;;;;;4953698;29;20059;-74
2021/12/01 08:21:57;;;;;;;7.45;2.42;;;;;;;;;;4955798;28;20058;-72
2021/12/01 08:24:23;;;;;;;5.30;2.47;;;;;;;;;;4957011;28;20050;-73
2021/12/01 08:26:49;;;;;;;4.57;2.38;;;;;;;;;;4956777;28;20079;-72
2021/12/01 08:29:16;;;;;;;12.38;2.75;;;;;;;;;;4957354;28;20031;-74
2021/12/01 08:31:42;;;;;;;4.70;2.92;;;;;;;;;;4957179;28;20114;-76
2021/12/01 08:34:08;;;;;;;4.15;2.53;;;;;;;;;;4952481;28;20174;-75
2021/12/01 08:36:34;;;;;;;4.15;1.80;;;;;;;;;;4956099;28;20403;-75
2021/12/01 08:39:01;;;;;;;6.80;1.75;;;;;;;;;;4947702;28;20509;-75
2021/12/01 08:41:26;;;;;;;4.63;1.90;;;;;;;;;;4946180;28;20098;-76
2021/12/01 08:43:52;;;;;;;3.05;1.90;;;;;;;;;;4952039;28;20186;-72
2021/12/01 08:46:18;;;;;;;6.78;2.53;;;;;;;;;;4945663;28;20059;-75
2021/12/01 08:48:44;;;;;;;5.25;2.70;;;;;;;;;;4944282;28;20044;-74
2021/12/01 08:51:10;;;;;;;6.47;2.75;;;;;;;;;;4936515;29;20337;-74
2021/12/01 08:53:40;;;;;;;10.57;2.97;;;;;;;;;;4936505;29;20047;-72
2021/12/01 08:56:06;;;;;;;5.68;1.98;;;;;;;;;;4966488;28;20051;-73
2021/12/01 08:58:32;;;;;;;3.25;2.00;;;;;;;;;;4938517;28;20135;-74
2021/12/01 09:00:58;;;;;;;4.47;2.30;;;;;;;;;;4959022;28;20119;-74
2021/12/01 09:03:25;;;;;;;3.35;1.90;;;;;;;;;;4954293;28;20262;-72
2021/12/01 09:05:52;;;;;;;7.47;1.80;;;;;;;;;;4986492;28;20039;-72
2021/12/01 09:08:22;;;;;;;3.03;1.70;;;;;;;;;;4955689;29;20101;-74
2021/12/01 09:10:51;;;;;;;3.15;1.60;;;;;;;;;;4955071;28;20397;-73
2021/12/01 09:13:18;;;;;;;6.97;2.00;;;;;;;;;;4955409;29;20035;-73
2021/12/01 09:15:44;;;;;;;6.32;2.10;;;;;;;;;;4955676;28;20036;-76
2021/12/01 09:18:09;;;;;;;5.00;1.83;;;;;;;;;;4969463;28;20035;-72
2021/12/01 09:20:35;;;;;;;9.88;1.95;;;;;;;;;;4965840;28;20030;-71
2021/12/01 09:23:03;;;;;;;4.95;2.00;;;;;;;;;;4955253;28;20493;-71
2021/12/01 09:25:29;;;;;;;4.65;2.00;;;;;;;;;;4946767;28;20023;-71
2021/12/01 09:27:55;;;;;;;4.30;2.10;;;;;;;;;;4952731;29;20053;-70
2021/12/01 09:30:21;;;;;;;5.13;2.08;;;;;;;;;;4955176;29;20042;-70
2021/12/01 09:32:47;;;;;;;3.38;1.55;;;;;;;;;;4954669;28;20462;-73
2021/12/01 09:35:14;;;;;;;5.72;2.17;;;;;;;;;;4967693;28;20118;-73
2021/12/01 09:37:40;;;;;;;8.02;3.42;;;;;;;;;;4974142;28;20039;-71
2021/12/01 09:40:13;;;;;;;2.97;2.00;;;;;;;;;;4972268;28;20022;-72
2021/12/01 09:42:42;;;;;;;6.13;2.47;;;;;;;;;;4974227;28;20351;-72
2021/12/01 09:45:10;;;;;;;4.85;1.98;;;;;;;;;;4973799;28;20041;-73
2021/12/01 09:47:36;;;;;;;4.07;1.98;;;;;;;;;;4974647;28;20073;-76
2021/12/01 09:50:03;;;;;;;2.95;1.45;;;;;;;;;;4974495;28;20434;-76
2021/12/01 09:52:29;;;;;;;4.22;2.15;;;;;;;;;;4955376;28;20050;-76
2021/12/01 09:54:54;;;;;;;5.57;2.25;;;;;;;;;;4947144;28;20031;-74
2021/12/01 09:57:20;;;;;;;7.70;2.30;;;;;;;;;;4954102;28;20047;-76
2021/12/01 09:59:46;;;;;;;8.32;3.53;;;;;;;;;;4953294;28;20054;-75
2021/12/01 10:02:12;;;;;;;6.22;3.75;;;;;;;;;;4968393;28;20042;-73
2021/12/01 10:04:39;;;;;;;5.22;2.88;;;;;;;;;;4954496;28;20027;-75
2021/12/01 10:07:15;;;;;;;6.35;2.70;;;;;;;;;;4954313;28;20386;-75
2021/12/01 10:09:48;;;;;;;4.65;2.17;;;;;;;;;;4954328;28;20051;-75
2021/12/01 10:12:14;;;;;;;4.28;2.00;;;;;;;;;;4954457;28;20039;-72
2021/12/01 10:14:48;;;;;;;4.25;1.85;;;;;;;;;;4954774;28;20027;-76
2021/12/01 10:17:16;;;;;;;5.38;1.95;;;;;;;;;;4954889;28;20038;-75
2021/12/01 10:19:42;;;;;;;4.53;2.22;;;;;;;;;;4955177;28;20023;-75
2021/12/01 10:22:10;;;;;;;6.15;2.00;;;;;;;;;;4955024;28;20434;-74
2021/12/01 10:24:37;;;;;;;5.90;2.10;;;;;;;;;;4955160;28;20027;-76
2021/12/01 10:27:09;;;;;;;5.63;2.25;;;;;;;;;;4954975;28;20126;-76
2021/12/01 10:29:48;;;;;;;5.28;1.92;;;;;;;;;;4954567;28;20035;-77
2021/12/01 10:32:16;;;;;;;4.05;2.10;;;;;;;;;;4954874;28;20390;-76
2021/12/01 10:34:50;;;;;;;10.93;2.25;;;;;;;;;;4954984;28;20031;-75
2021/12/01 10:37:29;;;;;;;4.07;1.75;;;;;;;;;;4954543;29;20049;-71
2021/12/01 10:40:15;;;;;;;4.30;2.00;;;;;;;;;;4954288;28;20087;-77
2021/12/01 10:43:05;;;;;;;8.25;2.63;;;;;;;;;;4954169;28;20074;-76
2021/12/01 10:45:34;;;;;;;4.28;1.80;;;;;;;;;;4954299;28;20035;-75
2021/12/01 10:48:01;;;;;;;4.55;2.42;;;;;;;;;;4954578;28;20027;-72
2021/12/01 10:50:30;;;;;;;13.77;2.55;;;;;;;;;;4955049;28;20051;-71
2021/12/01 10:53:08;;;;;;;5.10;2.30;;;;;;;;;;4954618;28;20034;-71
2021/12/01 10:55:40;;;;;;;7.07;2.63;;;;;;;;;;4954535;28;20443;-74
2021/12/01 10:58:06;;;;;;;11.98;3.05;;;;;;;;;;4954617;28;20058;-75
2021/12/01 11:00:39;;;;;;;6.68;2.20;;;;;;;;;;4954250;28;20057;-72
2021/12/01 11:03:26;;;;;;;7.28;2.38;;;;;;;;;;4954169;28;20039;-75
2021/12/01 11:06:09;;;;;;;4.30;2.00;;;;;;;;;;4953806;28;20431;-75
2021/12/01 11:08:40;;;;;;;5.85;1.92;;;;;;;;;;4954299;28;20043;-73
2021/12/01 11:11:09;;;;;;;6.22;2.15;;;;;;;;;;4954607;28;20114;-73
2021/12/01 11:13:37;;;;;;;5.00;2.30;;;;;;;;;;4954425;28;20031;-70
2021/12/01 11:16:08;;;;;;;7.28;2.47;;;;;;;;;;4954216;29;20469;-73
2021/12/01 11:18:38;;;;;;;26.95;3.40;;;;;;;;;;4969059;28;20031;-71
2021/12/01 11:21:19;;;;;;;11.82;3.25;;;;;;;;;;4953602;28;20035;-74
2021/12/01 11:23:50;;;;;;;13.27;3.05;;;;;;;;;;4954043;28;20591;-70
2021/12/01 11:26:20;;;;;;;7.05;2.20;;;;;;;;;;4954124;28;20047;-70
2021/12/01 11:29:00;;;;;;;7.88;1.95;;;;;;;;;;4952267;28;20565;-72
2021/12/01 11:31:31;;;;;;;5.22;2.63;;;;;;;;;;4953016;28;20071;-75
2021/12/01 11:34:00;;;;;;;9.05;2.70;;;;;;;;;;4952654;28;20038;-73
2021/12/01 11:36:32;;;;;;;6.82;2.25;;;;;;;;;;4954199;28;20106;-71
2021/12/01 11:39:00;;;;;;;3.22;1.90;;;;;;;;;;4953776;28;20031;-71
2021/12/01 11:41:28;;;;;;;8.70;3.05;;;;;;;;;;4954134;28;20023;-70
2021/12/01 11:43:55;;;;;;;7.38;2.90;;;;;;;;;;4953919;28;20063;-70
2021/12/01 11:46:21;;;;;;;7.20;2.10;;;;;;;;;;4954018;28;20112;-72
2021/12/01 11:48:56;;;;;;;13.88;3.35;;;;;;;;;;4953799;28;20164;-72
2021/12/01 11:51:30;;;;;;;9.02;2.70;;;;;;;;;;4953673;28;20042;-75
2021/12/01 11:54:04;;;;;;;9.15;2.88;;;;;;;;;;4953750;28;20043;-75
2021/12/01 11:56:33;;;;;;;8.05;2.90;;;;;;;;;;4957231;28;20035;-74
2021/12/01 11:59:20;;;;;;;6.47;2.70;;;;;;;;;;4957291;28;20094;-75
2021/12/01 12:01:58;;;;;;;4.72;2.15;;;;;;;;;;4957423;28;20541;-74
2021/12/01 12:04:25;;;;;;;4.72;1.98;;;;;;;;;;4957339;28;20118;-74
2021/12/01 12:07:05;;;;;;;10.20;2.55;;;;;;;;;;4957588;28;20378;-74
2021/12/01 12:09:31;;;;;;;8.43;2.20;;;;;;;;;;4957581;29;20130;-74
2021/12/01 12:11:59;;;;;;;2.60;1.67;;;;;;;;;;4957132;28;20229;-75
2021/12/01 12:14:30;;;;;;;6.57;2.50;;;;;;;;;;4957640;28;20118;-77
2021/12/01 12:17:05;;;;;;;5.55;2.17;;;;;;;;;;4957399;28;20042;-74
2021/12/01 12:19:43;;;;;;;5.38;3.30;;;;;;;;;;4957436;28;20039;-75
2021/12/01 12:22:43;;;;;;;4.75;2.08;;;;;;;;;;4957327;28;20046;-71
2021/12/01 12:25:37;;;;;;;10.20;2.83;;;;;;;;;;4960524;28;20447;-71
2021/12/01 12:28:23;;;;;;;;;;;;;;;;;;4957922;28;20055;-74
2021/12/01 12:30:50;;;;;;;6.68;2.80;;;;;;;;;;4957396;28;19919;-72
2021/12/01 12:33:26;;;;;;;5.47;1.90;;;;;;;;;;4957332;28;20479;-72
2021/12/01 12:36:04;;;;;;;3.78;1.85;;;;;;;;;;4987921;28;20146;-71
2021/12/01 12:38:31;;;;;;;7.47;2.60;;;;;;;;;;4957110;28;20394;-74
2021/12/01 12:41:13;;;;;;;3.00;1.58;;;;;;;;;;4956904;28;20019;-74
2021/12/01 12:43:43;;;;;;;4.47;2.28;;;;;;;;;;4987816;28;20023;-74
2021/12/01 12:46:16;;;;;;;6.25;2.20;;;;;;;;;;4957040;28;20031;-71
2021/12/01 12:48:45;;;;;;;4.43;1.65;;;;;;;;;;4956988;29;20032;-74
2021/12/01 12:51:21;;;;;;;10.20;1.40;;;;;;;;;;4956720;28;20482;-71
2021/12/01 12:54:03;;;;;;;12.13;2.35;;;;;;;;;;4956826;28;20051;-74
2021/12/01 12:56:33;;;;;;;3.70;1.50;;;;;;;;;;4953601;28;20028;-70
2021/12/01 12:59:29;;;;;;;4.55;1.50;;;;;;;;;;4947690;28;20043;-71
2021/12/01 13:02:15;;;;;;;4.22;1.40;;;;;;;;;;4956564;28;20043;-71
2021/12/01 13:04:59;;;;;;;4.53;1.67;;;;;;;;;;4947891;29;20050;-70
2021/12/01 13:07:48;;;;;;;6.05;2.10;;;;;;;;;;4936691;29;20123;-72
2021/12/01 13:10:37;;;;;;;5.47;1.20;;;;;;;;;;4938950;28;20094;-72
2021/12/01 13:13:18;;;;;;;5.97;2.90;;;;;;;;;;4955774;29;20035;-72
2021/12/01 13:15:44;;;;;;;5.20;1.85;;;;;;;;;;4955874;28;20179;-72
2021/12/01 13:18:19;;;;;;;4.40;3.00;;;;;;;;;;4956067;28;20538;-70
2021/12/01 13:20:52;;;;;;;4.28;2.28;;;;;;;;;;4954956;28;20043;-73
2021/12/01 13:23:45;;;;;;;5.93;1.77;;;;;;;;;;4956230;28;20537;-71
2021/12/01 13:26:37;;;;;;;7.00;2.45;;;;;;;;;;4951485;28;20409;-76
2021/12/01 13:29:05;;;;;;;5.63;1.90;;;;;;;;;;4942010;28;20044;-74
2021/12/01 13:31:31;;;;;;;5.25;1.70;;;;;;;;;;4951505;28;20044;-72
2021/12/01 13:34:01;;;;;;;4.00;1.67;;;;;;;;;;4947521;28;20133;-72
2021/12/01 13:36:30;;;;;;;3.28;1.40;;;;;;;;;;4955864;28;20063;-75
2021/12/01 13:39:26;;;;;;;4.97;1.77;;;;;;;;;;4955467;28;20039;-73
2021/12/01 13:41:59;;;;;;;5.35;1.80;;;;;;;;;;4961968;28;20410;-72
2021/12/01 13:44:32;;;;;;;4.22;1.70;;;;;;;;;;4951370;29;20036;-74
2021/12/01 13:47:02;;;;;;;6.40;1.38;;;;;;;;;;4950944;28;20038;-73
2021/12/01 13:49:56;;;;;;;2.72;1.50;;;;;;;;;;4954673;28;20055;-70
2021/12/01 13:52:28;;;;;;;9.55;2.55;;;;;;;;;;4954955;28;20058;-75
2021/12/01 13:54:55;;;;;;;5.50;1.95;;;;;;;;;;4954231;28;20875;-71
2021/12/01 13:57:21;;;;;;;10.90;3.25;;;;;;;;;;4950954;28;20035;-72
2021/12/01 13:59:49;;;;;;;4.80;1.80;;;;;;;;;;4954536;28;20038;-73
2021/12/01 14:02:29;;;;;;;5.13;1.80;;;;;;;;;;4950607;28;20038;-73
2021/12/01 14:04:57;;;;;;;8.20;2.45;;;;;;;;;;4948451;29;20090;-73
2021/12/01 14:07:25;;;;;;;6.07;2.22;;;;;;;;;;4941651;28;20023;-75
2021/12/01 14:10:13;;;;;;;4.25;2.17;;;;;;;;;;4953864;28;20557;-74
2021/12/01 14:13:05;;;;;;;13.82;2.80;;;;;;;;;;4954534;28;20039;-76
2021/12/01 14:15:37;;;;;;;3.83;1.50;;;;;;;;;;4952893;28;20043;-74
2021/12/01 14:18:03;;;;;;;7.05;1.85;;;;;;;;;;4966482;28;20043;-73
2021/12/01 14:20:30;;;;;;;6.30;2.25;;;;;;;;;;4953651;28;20023;-71
2021/12/01 14:22:58;;;;;;;4.55;2.47;;;;;;;;;;4952497;28;20039;-74
2021/12/01 14:25:24;;;;;;;14.35;4.30;;;;;;;;;;4953541;28;20023;-72
2021/12/01 14:28:01;;;;;;;8.68;3.75;;;;;;;;;;4952843;28;20051;-72
2021/12/01 14:30:27;;;;;;;11.88;3.88;;;;;;;;;;4952804;28;20495;-73
2021/12/01 14:32:52;;;;;;;7.93;3.78;;;;;;;;;;4953253;28;20135;-73
2021/12/01 14:35:21;;;;;;;7.03;3.17;;;;;;;;;;4953709;28;20027;-71
2021/12/01 14:37:48;;;;;;;7.57;2.90;;;;;;;;;;4968292;28;20028;-68
2021/12/01 14:40:16;;;;;;;10.23;3.97;;;;;;;;;;4964189;28;20043;-72
2021/12/01 14:42:51;;;;;;;17.13;5.03;;;;;;;;;;4969715;28;20417;-72
2021/12/01 14:45:20;;;;;;;15.52;4.78;;;;;;;;;;4988011;28;20516;-70
2021/12/01 14:48:05;;;;;;;10.98;4.60;;;;;;;;;;4969737;28;20509;-71
2021/12/01 14:50:32;;;;;;;10.63;5.30;;;;;;;;;;4953226;28;20058;-74
2021/12/01 14:53:04;;;;;;;11.48;4.95;;;;;;;;;;4966231;28;20035;-70
2021/12/01 14:55:37;;;;;;;10.38;5.38;;;;;;;;;;4972808;28;20090;-70
2021/12/01 14:58:12;;;;;;;12.93;5.37;;;;;;;;;;4972927;28;20039;-71